createdAt,value
2019-05-25T00:01:36.793Z,2.93
2019-05-25T00:04:09.247Z,2.40
2019-05-25T00:06:41.506Z,2.00
2019-05-25T00:09:13.667Z,2.60
2019-05-25T00:11:46.929Z,2.10
2019-05-25T00:14:19.406Z,2.47
2019-05-25T00:16:52.571Z,2.23
2019-05-25T00:19:24.788Z,2.83
2019-05-25T00:21:56.387Z,2.15
2019-05-25T00:24:28.086Z,2.53
2019-05-25T00:27:00.267Z,2.50
2019-05-25T00:29:32.539Z,3.10
2019-05-25T00:32:03.256Z,2.77
2019-05-25T00:34:35.173Z,2.60
2019-05-25T00:37:07.323Z,2.80
2019-05-25T00:39:40.099Z,2.60
2019-05-25T00:42:13.639Z,2.70
2019-05-25T00:44:45.298Z,3.00
2019-05-25T00:47:18.363Z,2.40
2019-05-25T00:49:49.690Z,2.50
2019-05-25T00:52:21.579Z,2.90
2019-05-25T00:54:54.886Z,2.60
2019-05-25T00:57:27.291Z,2.80
2019-05-25T00:59:59.524Z,3.53
2019-05-25T01:02:31.617Z,3.60
2019-05-25T01:05:03.302Z,3.00
2019-05-25T01:07:43.013Z,3.50
2019-05-25T01:10:16.061Z,3.10
2019-05-25T01:12:47.642Z,2.90
2019-05-25T01:15:20.072Z,2.90
2019-05-25T01:18:00.280Z,2.60
2019-05-25T01:20:33.849Z,2.93
2019-05-25T01:23:06.336Z,3.07
2019-05-25T01:25:37.901Z,2.80
2019-05-25T01:28:12.816Z,2.83
2019-05-25T01:30:45.249Z,2.95
2019-05-25T01:33:17.534Z,2.40
2019-05-25T01:35:49.541Z,2.70
2019-05-25T01:38:21.244Z,2.90
2019-05-25T01:40:54.259Z,2.80
2019-05-25T01:43:26.608Z,3.50
2019-05-25T01:45:59.291Z,3.17
2019-05-25T01:48:31.354Z,3.53
2019-05-25T01:51:02.639Z,3.73
2019-05-25T01:53:35.834Z,3.30
2019-05-25T01:56:09.736Z,3.40
2019-05-25T01:58:43.873Z,3.10
2019-05-25T02:01:21.499Z,3.72
2019-05-25T02:04:10.827Z,4.20
2019-05-25T02:06:43.865Z,3.83
2019-05-25T02:09:16.645Z,3.70
2019-05-25T02:11:48.438Z,4.20
2019-05-25T02:14:20.260Z,4.07
2019-05-25T02:16:53.854Z,3.93
2019-05-25T02:19:26.020Z,4.10
2019-05-25T02:21:58.024Z,4.80
2019-05-25T02:24:29.973Z,4.63
2019-05-25T02:27:01.242Z,4.90
2019-05-25T02:29:34.335Z,4.77
2019-05-25T02:32:06.353Z,4.90
2019-05-25T02:34:38.874Z,5.17
2019-05-25T02:37:10.842Z,4.93
2019-05-25T02:39:43.664Z,5.40
2019-05-25T02:42:15.340Z,5.90
2019-05-25T02:44:49.447Z,5.13
2019-05-25T02:47:22.488Z,5.33
2019-05-25T02:49:54.992Z,5.17
2019-05-25T02:52:28.780Z,5.30
2019-05-25T02:55:01.833Z,5.10
2019-05-25T02:57:33.907Z,5.50
2019-05-25T03:00:09.266Z,5.43
2019-05-25T03:02:43.254Z,5.27
2019-05-25T03:05:18.690Z,5.10
2019-05-25T03:07:52.333Z,4.90
2019-05-25T03:10:24.888Z,5.03
2019-05-25T03:12:58.311Z,5.43
2019-05-25T03:15:36.911Z,5.10
2019-05-25T03:18:09.138Z,5.50
2019-05-25T03:20:41.969Z,5.33
2019-05-25T03:23:15.345Z,5.00
2019-05-25T03:25:49.906Z,5.37
2019-05-25T03:28:21.120Z,4.85
2019-05-25T03:31:17.278Z,4.67
2019-05-25T03:33:49.894Z,5.10
2019-05-25T03:36:22.352Z,4.97
2019-05-25T03:38:55.133Z,5.03
2019-05-25T03:41:27.138Z,5.53
2019-05-25T03:43:59.262Z,4.93
2019-05-25T03:46:33.621Z,4.95
2019-05-25T03:49:06.306Z,4.92
2019-05-25T03:51:38.991Z,4.97
2019-05-25T03:54:11.329Z,4.77
2019-05-25T03:56:45.417Z,4.77
2019-05-25T03:59:17.274Z,4.40
2019-05-25T04:01:50.490Z,4.92
2019-05-25T04:04:22.497Z,4.70
2019-05-25T04:06:54.388Z,4.50
2019-05-25T04:09:26.631Z,4.70
2019-05-25T04:11:59.935Z,4.75
2019-05-25T04:14:34.742Z,4.45
2019-05-25T04:17:07.710Z,4.20
2019-05-25T04:19:40.054Z,4.30
2019-05-25T04:22:22.075Z,4.23
2019-05-25T04:24:54.558Z,4.40
2019-05-25T04:27:27.781Z,3.95
2019-05-25T04:30:00.264Z,4.30
2019-05-25T04:32:34.344Z,4.50
2019-05-25T04:35:07.297Z,4.28
2019-05-25T04:37:39.547Z,4.73
2019-05-25T04:40:23.100Z,4.37
2019-05-25T04:42:55.365Z,4.20
2019-05-25T04:45:31.514Z,4.87
2019-05-25T04:48:05.353Z,4.70
2019-05-25T04:50:37.425Z,4.25
2019-05-25T04:53:10.803Z,4.73
2019-05-25T04:55:42.836Z,4.60
2019-05-25T04:58:15.538Z,4.90
2019-05-25T05:00:47.255Z,4.00
2019-05-25T05:03:19.357Z,4.60
2019-05-25T05:05:52.195Z,4.50
2019-05-25T05:08:25.266Z,4.27
2019-05-25T05:10:56.935Z,4.33
2019-05-25T05:13:29.418Z,4.50
2019-05-25T05:16:03.022Z,4.22
2019-05-25T05:18:35.597Z,4.10
2019-05-25T05:21:09.028Z,4.50
2019-05-25T05:23:40.509Z,4.30
2019-05-25T05:26:12.520Z,4.20
2019-05-25T05:28:49.016Z,4.27
2019-05-25T05:31:23.488Z,4.20
2019-05-25T05:33:53.582Z,4.50
2019-05-25T05:36:27.214Z,4.17
2019-05-25T05:39:10.985Z,4.20
2019-05-25T05:41:43.150Z,4.23
2019-05-25T05:44:17.847Z,4.50
2019-05-25T05:47:00.027Z,4.30
2019-05-25T05:49:32.775Z,3.73
2019-05-25T05:52:04.666Z,4.23
2019-05-25T05:54:39.270Z,4.50
2019-05-25T05:57:13.062Z,4.08
2019-05-25T05:59:45.185Z,4.53
2019-05-25T06:02:18.414Z,4.30
2019-05-25T06:04:51.107Z,4.25
2019-05-25T06:07:27.294Z,4.40
2019-05-25T06:09:58.884Z,4.60
2019-05-25T06:12:30.427Z,3.70
2019-05-25T06:15:02.146Z,4.10
2019-05-25T06:17:34.875Z,4.57
2019-05-25T06:20:10.794Z,5.40
2019-05-25T06:22:43.471Z,4.30
2019-05-25T06:25:15.166Z,4.03
2019-05-25T06:27:47.642Z,4.00
2019-05-25T06:30:29.806Z,3.98
2019-05-25T06:33:02.883Z,4.10
2019-05-25T06:35:35.618Z,4.20
2019-05-25T06:38:08.123Z,3.67
2019-05-25T06:40:41.341Z,3.70
2019-05-25T06:43:13.535Z,3.90
2019-05-25T06:45:46.342Z,3.30
2019-05-25T06:48:18.447Z,3.23
2019-05-25T06:50:50.829Z,3.30
2019-05-25T06:53:23.690Z,3.37
2019-05-25T06:55:55.603Z,3.30
2019-05-25T06:58:27.450Z,3.23
2019-05-25T07:00:59.903Z,3.60
2019-05-25T07:03:32.381Z,3.20
2019-05-25T07:06:05.162Z,2.92
2019-05-25T07:08:37.453Z,3.40
2019-05-25T07:11:24.034Z,3.23
2019-05-25T07:14:09.187Z,3.57
2019-05-25T07:16:40.960Z,3.10
2019-05-25T07:19:14.196Z,2.90
2019-05-25T07:21:45.976Z,3.33
2019-05-25T07:24:19.179Z,3.03
2019-05-25T07:26:52.014Z,3.08
2019-05-25T07:29:25.823Z,3.13
2019-05-25T07:32:02.101Z,3.37
2019-05-25T07:34:33.493Z,3.17
2019-05-25T07:37:06.221Z,3.20
2019-05-25T07:39:39.293Z,2.90
2019-05-25T07:42:11.424Z,3.12
2019-05-25T07:44:42.735Z,3.10
2019-05-25T07:47:16.787Z,3.27
2019-05-25T07:49:50.106Z,3.10
2019-05-25T07:52:22.711Z,3.03
2019-05-25T07:54:54.770Z,3.00
2019-05-25T07:57:28.677Z,3.15
2019-05-25T08:00:12.827Z,2.80
2019-05-25T08:02:46.605Z,3.03
2019-05-25T08:05:21.580Z,2.80
2019-05-25T08:07:55.909Z,3.20
2019-05-25T08:10:27.701Z,2.93
2019-05-25T08:12:59.890Z,3.13
2019-05-25T08:15:31.711Z,3.33
2019-05-25T08:18:05.738Z,2.83
2019-05-25T08:20:38.262Z,3.00
2019-05-25T08:23:10.453Z,3.10
2019-05-25T08:25:42.712Z,3.30
2019-05-25T08:28:29.875Z,3.30
2019-05-25T08:30:50.723Z,3.10
2019-05-25T08:33:23.053Z,2.73
2019-05-25T08:35:56.002Z,2.90
2019-05-25T08:38:29.156Z,3.00
2019-05-25T08:41:01.037Z,3.30
2019-05-25T08:43:32.518Z,3.00
2019-05-25T08:46:04.849Z,3.00
2019-05-25T08:48:37.364Z,2.90
2019-05-25T08:51:10.902Z,3.13
2019-05-25T08:53:46.606Z,3.23
2019-05-25T08:56:17.117Z,2.80
2019-05-25T08:58:59.727Z,2.98
2019-05-25T09:01:32.304Z,3.30
2019-05-25T09:04:04.207Z,2.95
2019-05-25T09:06:37.813Z,3.10
2019-05-25T09:09:11.389Z,3.20
2019-05-25T09:11:46.128Z,3.20
2019-05-25T09:14:19.208Z,3.30
2019-05-25T09:16:51.044Z,3.52
2019-05-25T09:19:23.740Z,3.37
2019-05-25T09:22:02.632Z,3.30
2019-05-25T09:24:29.949Z,3.53
2019-05-25T09:27:02.024Z,3.43
2019-05-25T09:29:33.928Z,3.40
2019-05-25T09:32:07.271Z,3.50
2019-05-25T09:34:39.336Z,3.50
2019-05-25T09:37:10.860Z,3.02
2019-05-25T09:39:45.122Z,3.40
2019-05-25T09:42:16.963Z,3.60
2019-05-25T09:44:48.548Z,3.50
2019-05-25T09:47:20.518Z,3.30
2019-05-25T09:49:54.118Z,3.47
2019-05-25T09:52:27.394Z,3.83
2019-05-25T09:54:59.116Z,3.80
2019-05-25T09:57:30.781Z,3.87
2019-05-25T10:00:03.922Z,3.40
2019-05-25T10:02:36.317Z,3.50
2019-05-25T10:05:08.936Z,3.87
2019-05-25T10:07:41.555Z,3.67
2019-05-25T10:10:14.303Z,3.60
2019-05-25T10:12:47.877Z,3.90
2019-05-25T10:15:20.029Z,3.80
2019-05-25T10:17:51.420Z,3.60
2019-05-25T10:20:23.778Z,3.42
2019-05-25T10:22:55.454Z,3.80
2019-05-25T10:25:27.557Z,3.73
2019-05-25T10:27:59.316Z,3.50
2019-05-25T10:30:31.537Z,3.60
2019-05-25T10:33:04.419Z,3.05
2019-05-25T10:35:36.357Z,3.40
2019-05-25T10:38:09.402Z,3.58
2019-05-25T10:40:41.517Z,3.30
2019-05-25T10:43:13.937Z,3.55
2019-05-25T10:45:50.877Z,3.57
2019-05-25T10:48:23.937Z,3.47
2019-05-25T10:50:55.456Z,3.52
2019-05-25T10:53:27.940Z,3.10
2019-05-25T10:55:59.939Z,3.67
2019-05-25T10:58:31.618Z,3.10
2019-05-25T11:01:04.337Z,3.50
2019-05-25T11:03:35.877Z,3.33
2019-05-25T11:06:08.157Z,3.83
2019-05-25T11:08:39.757Z,3.40
2019-05-25T11:11:11.826Z,3.90
2019-05-25T11:13:42.867Z,3.50
2019-05-25T11:16:14.530Z,3.03
2019-05-25T11:18:47.438Z,3.70
2019-05-25T11:21:18.716Z,3.60
2019-05-25T11:23:51.278Z,3.10
2019-05-25T11:26:22.837Z,3.33
2019-05-25T11:28:54.397Z,3.00
2019-05-25T11:31:27.158Z,3.30
2019-05-25T11:34:00.037Z,3.43
2019-05-25T11:36:32.817Z,2.63
2019-05-25T11:39:06.657Z,3.27
2019-05-25T11:41:48.282Z,2.90
2019-05-25T11:44:21.172Z,3.13
2019-05-25T11:46:55.237Z,3.00
2019-05-25T11:49:27.366Z,3.08
2019-05-25T11:52:11.364Z,3.00
2019-05-25T11:54:43.842Z,3.00
2019-05-25T11:57:16.075Z,2.97
2019-05-25T11:59:48.999Z,3.37
2019-05-25T12:02:22.322Z,3.30
2019-05-25T12:04:54.745Z,3.37
2019-05-25T12:07:26.428Z,3.30
2019-05-25T12:09:59.341Z,3.10
2019-05-25T12:12:31.112Z,3.90
2019-05-25T12:15:04.346Z,3.35
2019-05-25T12:17:37.028Z,3.50
2019-05-25T12:20:12.345Z,2.73
2019-05-25T12:22:44.472Z,2.93
2019-05-25T12:25:37.250Z,3.10
2019-05-25T12:28:08.862Z,2.73
2019-05-25T12:30:42.513Z,3.00
2019-05-25T12:33:14.608Z,3.22
2019-05-25T12:35:57.013Z,3.10
2019-05-25T12:38:29.057Z,3.00
2019-05-25T12:41:01.035Z,2.70
2019-05-25T12:43:33.408Z,2.10
2019-05-25T12:46:06.440Z,2.30
2019-05-25T12:48:46.773Z,2.07
2019-05-25T12:51:20.089Z,2.20
2019-05-25T12:53:51.910Z,2.33
2019-05-25T12:56:24.371Z,2.40
2019-05-25T12:58:56.804Z,2.53
2019-05-25T13:01:29.956Z,2.50
2019-05-25T13:04:04.876Z,2.10
2019-05-25T13:06:37.772Z,2.30
2019-05-25T13:09:10.470Z,2.43
2019-05-25T13:11:42.665Z,2.10
2019-05-25T13:14:15.755Z,2.10
2019-05-25T13:16:48.914Z,2.33
2019-05-25T13:19:21.513Z,2.10
2019-05-25T13:21:53.719Z,2.27
2019-05-25T13:24:27.374Z,2.70
2019-05-25T13:27:01.263Z,2.10
2019-05-25T13:29:33.582Z,2.00
2019-05-25T13:32:06.708Z,1.90
2019-05-25T13:34:39.699Z,1.60
2019-05-25T13:37:12.319Z,1.90
2019-05-25T13:39:47.418Z,1.83
2019-05-25T13:42:21.355Z,2.00
2019-05-25T13:44:53.459Z,2.00
2019-05-25T13:47:33.248Z,1.92
2019-05-25T13:50:06.322Z,2.08
2019-05-25T13:52:38.138Z,2.00
2019-05-25T13:55:10.416Z,2.20
2019-05-25T13:58:02.651Z,2.20
2019-05-25T14:00:41.815Z,2.10
2019-05-25T14:03:21.887Z,2.20
2019-05-25T14:05:55.568Z,2.00
2019-05-25T14:08:38.319Z,2.03
2019-05-25T14:11:11.645Z,2.00
2019-05-25T14:13:43.553Z,2.25
2019-05-25T14:16:16.459Z,2.27
2019-05-25T14:18:49.546Z,2.00
2019-05-25T14:21:23.948Z,1.80
2019-05-25T14:23:57.878Z,1.87
2019-05-25T14:26:30.873Z,1.80
2019-05-25T14:29:03.874Z,1.90
2019-05-25T14:31:46.311Z,1.70
2019-05-25T14:34:20.407Z,1.80
2019-05-25T14:37:02.446Z,1.80
2019-05-25T14:39:38.181Z,2.10
2019-05-25T14:42:10.509Z,1.80
2019-05-25T14:44:43.133Z,2.00
2019-05-25T14:47:15.098Z,1.80
2019-05-25T14:49:47.150Z,1.95
2019-05-25T14:52:19.773Z,2.10
2019-05-25T14:54:52.481Z,1.80
2019-05-25T14:57:26.070Z,1.87
2019-05-25T14:59:58.837Z,1.80
2019-05-25T15:02:30.110Z,1.90
2019-05-25T15:05:02.994Z,1.63
2019-05-25T15:07:35.051Z,1.77
2019-05-25T15:10:07.715Z,1.70
2019-05-25T15:12:40.597Z,1.70
2019-05-25T15:15:13.272Z,1.60
2019-05-25T15:17:45.935Z,1.50
2019-05-25T15:20:18.767Z,1.90
2019-05-25T15:22:52.111Z,1.60
2019-05-25T15:25:24.238Z,1.72
2019-05-25T15:27:56.755Z,1.90
2019-05-25T15:30:29.198Z,1.87
2019-05-25T15:33:01.546Z,1.70
2019-05-25T15:35:34.615Z,1.93
2019-05-25T15:38:07.573Z,2.00
2019-05-25T15:40:39.808Z,1.90
2019-05-25T15:43:12.848Z,1.50
2019-05-25T15:45:45.112Z,1.90
2019-05-25T15:48:18.242Z,1.82
2019-05-25T15:50:50.651Z,2.50
2019-05-25T15:53:22.187Z,2.03
2019-05-25T15:55:55.628Z,1.97
2019-05-25T15:58:28.308Z,2.10
2019-05-25T16:01:01.522Z,1.90
2019-05-25T16:03:33.738Z,1.70
2019-05-25T16:06:06.914Z,2.00
2019-05-25T16:08:40.224Z,1.87
2019-05-25T16:11:12.132Z,1.77
2019-05-25T16:13:43.950Z,1.90
2019-05-25T16:16:16.954Z,2.70
2019-05-25T16:18:50.232Z,2.17
2019-05-25T16:21:23.052Z,1.90
2019-05-25T16:23:55.275Z,2.15
2019-05-25T16:26:27.552Z,1.90
2019-05-25T16:29:00.345Z,2.20
2019-05-25T16:31:33.992Z,2.30
2019-05-25T16:34:06.200Z,2.58
2019-05-25T16:36:37.758Z,2.50
2019-05-25T16:39:11.260Z,2.47
2019-05-25T16:41:43.506Z,3.10
2019-05-25T16:44:17.663Z,3.20
2019-05-25T16:46:50.028Z,2.57
2019-05-25T16:49:23.137Z,2.80
2019-05-25T16:51:56.262Z,3.37
2019-05-25T16:54:29.516Z,3.40
2019-05-25T16:57:02.049Z,2.80
2019-05-25T16:59:34.585Z,2.50
2019-05-25T17:02:06.210Z,2.87
2019-05-25T17:04:37.596Z,3.00
2019-05-25T17:07:10.027Z,2.90
2019-05-25T17:09:43.322Z,2.70
2019-05-25T17:12:15.273Z,2.87
2019-05-25T17:14:47.440Z,2.90
2019-05-25T17:17:19.688Z,3.00
2019-05-25T17:19:52.056Z,3.03
2019-05-25T17:22:24.692Z,3.10
2019-05-25T17:24:59.371Z,2.97
2019-05-25T17:27:32.277Z,2.92
2019-05-25T17:30:06.285Z,3.05
2019-05-25T17:32:39.396Z,3.10
2019-05-25T17:35:12.871Z,3.10
2019-05-25T17:37:45.137Z,4.00
2019-05-25T17:40:19.623Z,3.20
2019-05-25T17:42:52.453Z,3.13
2019-05-25T17:45:25.355Z,3.20
2019-05-25T17:47:58.689Z,3.67
2019-05-25T17:50:31.006Z,3.20
2019-05-25T17:53:04.859Z,3.57
2019-05-25T17:55:37.057Z,3.20
2019-05-25T17:58:09.730Z,2.90
2019-05-25T18:00:48.534Z,3.47
2019-05-25T18:03:21.307Z,3.02
2019-05-25T18:05:53.635Z,3.30
2019-05-25T18:08:26.148Z,3.10
2019-05-25T18:10:58.400Z,3.57
2019-05-25T18:13:30.933Z,3.53
2019-05-25T18:16:04.493Z,3.40
2019-05-25T18:18:37.275Z,3.30
2019-05-25T18:21:19.627Z,3.43
2019-05-25T18:23:51.450Z,3.70
2019-05-25T18:26:23.826Z,3.80
2019-05-25T18:28:56.247Z,4.28
2019-05-25T18:31:28.565Z,4.20
2019-05-25T18:34:00.749Z,4.07
2019-05-25T18:36:32.700Z,4.20
2019-05-25T18:39:21.240Z,4.00
2019-05-25T18:41:54.181Z,4.50
2019-05-25T18:44:27.255Z,4.60
2019-05-25T18:46:59.593Z,4.77
2019-05-25T18:49:31.486Z,4.93
2019-05-25T18:52:03.444Z,4.73
2019-05-25T18:54:37.763Z,4.70
2019-05-25T18:57:12.843Z,4.83
2019-05-25T18:59:45.733Z,5.00
2019-05-25T19:02:18.583Z,4.70
2019-05-25T19:04:59.499Z,4.07
2019-05-25T19:07:24.940Z,4.10
2019-05-25T19:09:56.917Z,4.13
2019-05-25T19:12:39.327Z,4.27
2019-05-25T19:15:12.298Z,4.12
2019-05-25T19:17:44.959Z,4.30
2019-05-25T19:20:20.967Z,4.65
2019-05-25T19:22:51.752Z,4.10
2019-05-25T19:25:25.458Z,3.83
2019-05-25T19:27:59.466Z,4.05
2019-05-25T19:30:32.353Z,4.10
2019-05-25T19:33:04.909Z,4.28
2019-05-25T19:35:37.950Z,3.67
2019-05-25T19:38:15.265Z,3.60
2019-05-25T19:40:49.206Z,3.67
2019-05-25T19:43:29.326Z,3.27
2019-05-25T19:46:02.058Z,3.30
2019-05-25T19:48:33.748Z,3.03
2019-05-25T19:51:07.118Z,3.42
2019-05-25T19:53:41.052Z,3.37
2019-05-25T19:56:12.633Z,3.07
2019-05-25T19:58:45.350Z,2.90
2019-05-25T20:01:16.699Z,2.90
2019-05-25T20:03:48.909Z,3.00
2019-05-25T20:06:20.967Z,2.90
2019-05-25T20:08:53.899Z,3.00
2019-05-25T20:11:27.808Z,3.10
2019-05-25T20:14:00.768Z,3.30
2019-05-25T20:16:33.441Z,3.07
2019-05-25T20:19:42.460Z,3.20
2019-05-25T20:22:14.743Z,2.97
2019-05-25T20:24:48.186Z,2.90
2019-05-25T20:27:20.794Z,3.43
2019-05-25T20:29:53.220Z,3.10
2019-05-25T20:32:25.093Z,3.10
2019-05-25T20:34:57.529Z,3.37
2019-05-25T20:37:30.597Z,3.20
2019-05-25T20:40:01.788Z,3.63
2019-05-25T20:42:34.152Z,3.20
2019-05-25T20:45:07.635Z,3.30
2019-05-25T20:47:40.077Z,3.47
2019-05-25T20:50:11.497Z,3.77
2019-05-25T20:52:45.190Z,3.80
2019-05-25T20:55:17.588Z,3.52
2019-05-25T20:57:50.494Z,3.90
2019-05-25T21:00:24.425Z,3.53
2019-05-25T21:03:06.028Z,3.55
2019-05-25T21:05:46.974Z,3.37
2019-05-25T21:08:09.820Z,3.67
2019-05-25T21:10:42.254Z,3.73
2019-05-25T21:13:15.151Z,3.50
2019-05-25T21:15:47.297Z,3.30
2019-05-25T21:18:22.066Z,4.17
2019-05-25T21:20:53.747Z,3.70
2019-05-25T21:23:26.842Z,3.70
2019-05-25T21:25:59.756Z,3.50
2019-05-25T21:28:34.162Z,3.53
2019-05-25T21:31:06.403Z,3.60
2019-05-25T21:33:40.053Z,4.22
2019-05-25T21:36:12.164Z,3.60
2019-05-25T21:38:45.282Z,3.35
2019-05-25T21:41:19.210Z,3.93
2019-05-25T21:43:51.422Z,3.85
2019-05-25T21:46:24.064Z,3.80
2019-05-25T21:51:45.517Z,3.80
2019-05-25T21:54:18.561Z,3.58
2019-05-25T21:56:51.620Z,3.53
2019-05-25T21:59:24.522Z,3.80
2019-05-25T22:01:56.741Z,3.30
2019-05-25T22:04:28.797Z,3.53
2019-05-25T22:07:02.477Z,3.30
2019-05-25T22:09:34.867Z,3.63
2019-05-25T22:12:09.589Z,3.80
2019-05-25T22:15:01.341Z,3.22
2019-05-25T22:17:34.674Z,3.53
2019-05-25T22:20:16.205Z,3.50
2019-05-25T22:22:48.772Z,3.23
2019-05-25T22:25:22.093Z,3.40
2019-05-25T22:27:54.317Z,3.53
2019-05-25T22:30:27.701Z,3.60
2019-05-25T22:33:01.126Z,3.70
2019-05-25T22:35:34.087Z,3.50
2019-05-25T22:38:06.907Z,3.40
2019-05-25T22:40:40.128Z,3.60
2019-05-25T22:43:18.903Z,3.17
2019-05-25T22:45:51.453Z,3.63
2019-05-25T22:48:23.711Z,3.15
2019-05-25T22:50:55.890Z,3.27
2019-05-25T22:53:28.305Z,3.27
2019-05-25T22:56:00.385Z,3.33
2019-05-25T22:58:33.234Z,3.20
2019-05-25T23:01:08.230Z,3.27
2019-05-25T23:03:41.303Z,3.37
2019-05-25T23:06:13.840Z,3.30
2019-05-25T23:08:46.585Z,3.43
2019-05-25T23:11:19.256Z,3.30
2019-05-25T23:13:52.244Z,3.00
2019-05-25T23:16:25.182Z,3.30
2019-05-25T23:18:56.615Z,3.20
2019-05-25T23:21:30.120Z,3.13
2019-05-25T23:24:03.260Z,3.70
2019-05-25T23:26:36.195Z,3.40
2019-05-25T23:29:09.275Z,3.60
2019-05-25T23:31:41.913Z,3.77
2019-05-25T23:34:15.229Z,3.90
2019-05-25T23:36:48.251Z,4.30
2019-05-25T23:39:21.742Z,4.60
2019-05-25T23:41:54.549Z,5.00
2019-05-25T23:44:27.885Z,4.80
2019-05-25T23:46:59.781Z,4.67
2019-05-25T23:49:41.919Z,5.10
2019-05-25T23:52:15.100Z,5.37
2019-05-25T23:54:56.635Z,4.60
2019-05-25T23:57:29.553Z,5.30
